Terminal Aerodrome Forecast
Issued by NWS Sioux Falls, SD

Home | Current Version | Previous Version | Graphics & Text | Print | Product List | Glossary On
Versions: 1 2 3 4 5 6 7 8 9 10 11 12 13 14 15 16
000
FTUS43 KFSD 181722
TAFSUX
TAF
KSUX 181722Z 1818/1918 32006KT P6SM FEW250
     FM190700 00000KT P6SM SKC
     FM191100 00000KT 4SM BR FEW150
     FM191300 00000KT 5SM BR FEW140=

USA.gov is the U.S. government's official web portal to all federal, state and local government web resources and services.